createdAt,value
2023-01-31T00:03:01.863Z,1.45
2023-01-31T00:08:03.105Z,1.44
2023-01-31T00:13:03.835Z,1.43
2023-01-31T00:18:05.588Z,1.39
2023-01-31T00:23:06.352Z,1.28
2023-01-31T00:28:07.187Z,1.29
2023-01-31T00:33:08.393Z,1.30
2023-01-31T00:38:09.145Z,1.27
2023-01-31T00:43:09.875Z,1.23
2023-01-31T00:48:10.644Z,1.15
2023-01-31T00:53:11.448Z,1.17
2023-01-31T00:58:12.629Z,1.15
2023-01-31T01:03:13.834Z,1.07
2023-01-31T01:08:14.619Z,1.04
2023-01-31T01:13:15.466Z,1.01
2023-01-31T01:18:16.202Z,1.02
2023-01-31T01:23:16.943Z,0.98
2023-01-31T01:28:17.794Z,0.97
2023-01-31T01:33:18.552Z,1.03
2023-01-31T01:38:20.379Z,1.04
2023-01-31T01:43:21.208Z,1.05
2023-01-31T01:48:22.066Z,1.07
2023-01-31T01:53:27.172Z,1.22
2023-01-31T01:59:54.385Z,1.07
2023-01-31T02:04:55.992Z,1.14
2023-01-31T02:10:04.102Z,1.16
2023-01-31T02:15:06.195Z,1.09
2023-01-31T02:20:15.210Z,1.04
2023-01-31T02:27:04.147Z,0.98
2023-01-31T02:33:14.194Z,1.00
2023-01-31T02:42:34.435Z,1.01
2023-01-31T02:49:38.563Z,0.98
2023-01-31T02:55:32.754Z,0.91
2023-01-31T03:00:36.735Z,0.97
2023-01-31T03:05:37.655Z,0.94
2023-01-31T03:11:02.050Z,0.88
2023-01-31T03:16:34.499Z,0.82
2023-01-31T03:21:40.672Z,0.79
2023-01-31T03:26:42.126Z,0.86
2023-01-31T03:31:52.115Z,0.79
2023-01-31T03:37:03.458Z,0.76
2023-01-31T03:42:21.315Z,0.78
2023-01-31T03:47:30.545Z,0.72
2023-01-31T03:52:38.218Z,0.57
2023-01-31T03:57:41.974Z,0.62
2023-01-31T04:02:43.224Z,0.50
2023-01-31T04:07:45.739Z,0.54
2023-01-31T04:12:53.841Z,0.52
2023-01-31T04:17:54.557Z,0.56
2023-01-31T04:22:55.393Z,0.59
2023-01-31T04:27:56.166Z,0.65
2023-01-31T04:32:56.972Z,0.65
2023-01-31T04:37:57.825Z,0.61
2023-01-31T04:42:58.596Z,0.54
2023-01-31T04:47:59.359Z,0.57
2023-01-31T04:53:00.362Z,0.57
2023-01-31T04:58:01.529Z,0.63
2023-01-31T05:03:02.511Z,0.74
2023-01-31T05:08:03.817Z,0.73
2023-01-31T05:13:05.066Z,0.65
2023-01-31T05:18:06.705Z,0.61
2023-01-31T05:23:07.784Z,0.56
2023-01-31T05:28:08.913Z,0.54
2023-01-31T05:33:10.204Z,0.56
2023-01-31T05:38:11.141Z,0.50
2023-01-31T05:43:11.924Z,0.67
2023-01-31T05:48:12.698Z,0.63
2023-01-31T05:53:13.518Z,0.67
2023-01-31T05:58:14.576Z,0.65
2023-01-31T06:03:15.395Z,0.67
2023-01-31T06:08:17.504Z,0.66
2023-01-31T06:13:18.250Z,0.73
2023-01-31T06:18:19.002Z,0.64
2023-01-31T06:23:20.150Z,0.65
2023-01-31T06:28:22.136Z,0.72
2023-01-31T06:33:31.481Z,0.63
2023-01-31T06:38:39.305Z,0.69
2023-01-31T06:43:40.042Z,0.70
2023-01-31T06:48:40.868Z,0.73
2023-01-31T06:53:41.958Z,0.78
2023-01-31T06:58:42.789Z,0.68
2023-01-31T07:03:43.567Z,0.72
2023-01-31T07:08:44.690Z,0.75
2023-01-31T07:13:47.008Z,0.57
2023-01-31T07:18:52.666Z,0.65
2023-01-31T07:23:53.476Z,0.74
2023-01-31T07:28:54.522Z,0.78
2023-01-31T07:33:55.263Z,1.04
2023-01-31T07:38:57.084Z,1.16
2023-01-31T07:43:58.651Z,1.22
2023-01-31T07:48:59.581Z,1.33
2023-01-31T07:54:00.472Z,1.38
2023-01-31T07:59:01.243Z,1.32
2023-01-31T08:04:18.398Z,1.29
2023-01-31T08:09:22.905Z,1.37
2023-01-31T08:14:24.855Z,1.50
2023-01-31T08:19:26.063Z,1.73
2023-01-31T08:24:26.942Z,1.68
2023-01-31T08:29:28.275Z,1.66
2023-01-31T08:34:29.295Z,1.55
2023-01-31T08:39:30.469Z,1.51
2023-01-31T08:44:31.445Z,1.62
2023-01-31T08:49:35.570Z,1.69
2023-01-31T08:54:36.383Z,1.76
2023-01-31T08:59:37.176Z,1.80
2023-01-31T09:04:37.899Z,2.01
2023-01-31T09:09:39.577Z,2.49
2023-01-31T09:14:40.597Z,2.85
2023-01-31T09:19:41.450Z,2.75
2023-01-31T09:24:42.183Z,2.41
2023-01-31T09:29:42.983Z,2.38
2023-01-31T09:34:43.702Z,2.25
2023-01-31T09:39:44.660Z,2.21
2023-01-31T09:44:56.358Z,2.26
2023-01-31T09:50:06.799Z,2.10
2023-01-31T09:55:16.349Z,2.03
2023-01-31T10:00:32.884Z,2.04
2023-01-31T10:05:51.749Z,2.02
2023-01-31T10:11:00.019Z,2.01
2023-01-31T10:18:41.541Z,2.06
2023-01-31T10:23:56.539Z,2.19
2023-01-31T10:29:04.126Z,2.19
2023-01-31T10:34:30.467Z,2.21
2023-01-31T10:39:45.035Z,2.21
2023-01-31T10:45:21.181Z,2.24
2023-01-31T10:53:52.385Z,2.29
2023-01-31T10:58:54.243Z,2.28
2023-01-31T11:03:56.361Z,2.29
2023-01-31T11:09:00.920Z,2.31
2023-01-31T11:14:10.772Z,2.28
2023-01-31T11:19:57.952Z,2.27
2023-01-31T11:25:03.469Z,2.22
2023-01-31T11:30:06.395Z,2.19
2023-01-31T11:35:50.752Z,2.21
2023-01-31T11:40:51.525Z,2.34
2023-01-31T11:46:01.133Z,2.35
2023-01-31T11:51:03.080Z,2.40
2023-01-31T11:56:23.885Z,2.55
2023-01-31T12:01:26.583Z,2.69
2023-01-31T12:06:36.008Z,2.71
2023-01-31T12:11:36.931Z,2.65
2023-01-31T12:16:37.974Z,2.61
2023-01-31T12:27:15.248Z,2.68
2023-01-31T12:32:36.778Z,2.64
2023-01-31T12:40:54.726Z,2.73
2023-01-31T12:51:43.195Z,2.78
2023-01-31T13:06:43.946Z,2.82
2023-01-31T13:11:55.431Z,2.94
2023-01-31T13:17:01.313Z,2.97
2023-01-31T13:22:07.700Z,3.08
2023-01-31T13:27:29.542Z,3.10
2023-01-31T13:32:42.412Z,3.10
2023-01-31T13:37:46.536Z,3.11
2023-01-31T13:42:49.014Z,3.12
2023-01-31T13:48:07.464Z,3.12
2023-01-31T13:53:17.639Z,3.10
2023-01-31T13:58:27.279Z,3.12
2023-01-31T14:03:28.041Z,3.16
2023-01-31T14:09:22.406Z,3.17
2023-01-31T14:14:44.317Z,3.19
2023-01-31T14:20:25.688Z,3.16
2023-01-31T14:25:41.832Z,3.22
2023-01-31T14:30:44.049Z,3.21
2023-01-31T14:37:06.236Z,3.06
2023-01-31T14:42:30.455Z,2.95
2023-01-31T14:48:04.542Z,2.86
2023-01-31T14:53:39.388Z,2.88
2023-01-31T14:58:46.664Z,2.89
2023-01-31T15:03:58.010Z,2.93
2023-01-31T15:09:34.301Z,2.94
2023-01-31T15:14:50.088Z,2.93
2023-01-31T15:23:24.945Z,3.00
2023-01-31T15:28:29.379Z,3.13
2023-01-31T15:33:46.273Z,3.12
2023-01-31T15:38:56.995Z,3.20
2023-01-31T15:44:11.705Z,3.22
2023-01-31T15:49:39.957Z,3.18
2023-01-31T15:54:58.404Z,3.23
2023-01-31T15:59:59.387Z,3.28
2023-01-31T16:05:00.225Z,3.21
2023-01-31T16:10:01.640Z,3.21
2023-01-31T16:15:06.710Z,3.21
2023-01-31T16:20:43.555Z,3.18
2023-01-31T16:25:52.536Z,3.15
2023-01-31T16:30:54.130Z,3.09
2023-01-31T16:36:13.930Z,3.00
2023-01-31T16:41:40.955Z,3.03
2023-01-31T16:46:44.661Z,3.03
2023-01-31T16:51:46.485Z,3.06
2023-01-31T16:57:05.272Z,3.08
2023-01-31T17:02:40.383Z,3.12
2023-01-31T17:07:43.933Z,3.16
2023-01-31T17:12:45.089Z,3.19
2023-01-31T17:17:47.191Z,3.20
2023-01-31T17:22:56.954Z,3.22
2023-01-31T17:28:02.344Z,3.21
2023-01-31T17:33:03.311Z,3.27
2023-01-31T17:38:05.095Z,3.25
2023-01-31T17:43:06.105Z,3.23
2023-01-31T17:48:07.744Z,3.28
2023-01-31T17:53:13.320Z,3.28
2023-01-31T17:58:17.295Z,3.33
2023-01-31T18:03:20.375Z,3.28
2023-01-31T18:08:22.348Z,3.34
2023-01-31T18:13:23.135Z,3.37
2023-01-31T18:18:23.959Z,3.32
2023-01-31T18:23:24.689Z,3.36
2023-01-31T18:28:25.509Z,3.35
2023-01-31T18:33:26.227Z,3.38
2023-01-31T18:38:28.719Z,3.33
2023-01-31T18:43:29.842Z,3.30
2023-01-31T18:48:31.735Z,3.32
2023-01-31T18:53:38.736Z,3.36
2023-01-31T18:58:40.900Z,3.31
2023-01-31T19:03:42.723Z,3.32
2023-01-31T19:08:47.444Z,3.33
2023-01-31T19:13:48.477Z,3.32
2023-01-31T19:18:50.590Z,3.34
2023-01-31T19:23:54.101Z,3.32
2023-01-31T19:28:55.826Z,3.31
2023-01-31T19:33:59.042Z,3.41
2023-01-31T19:39:00.398Z,3.35
2023-01-31T19:44:02.605Z,3.35
2023-01-31T19:49:04.617Z,3.38
2023-01-31T19:54:05.973Z,3.45
2023-01-31T19:59:06.724Z,3.46
2023-01-31T20:04:07.539Z,3.50
2023-01-31T20:09:08.475Z,3.54
2023-01-31T20:14:09.379Z,3.52
2023-01-31T20:19:10.318Z,3.61
2023-01-31T20:24:12.709Z,3.59
2023-01-31T20:29:13.777Z,3.59
2023-01-31T20:34:14.549Z,3.64
2023-01-31T20:39:15.251Z,3.64
2023-01-31T20:44:16.334Z,3.64
2023-01-31T20:49:17.395Z,3.72
2023-01-31T20:54:18.205Z,3.72
2023-01-31T20:59:18.953Z,3.75
2023-01-31T21:04:19.726Z,3.76
2023-01-31T21:09:23.034Z,3.80
2023-01-31T21:14:24.170Z,3.78
2023-01-31T21:19:24.926Z,3.72
2023-01-31T21:24:25.680Z,3.74
2023-01-31T21:29:26.425Z,3.63
2023-01-31T21:34:27.270Z,3.66
2023-01-31T21:39:28.007Z,3.67
2023-01-31T21:44:29.319Z,3.73
2023-01-31T21:49:30.055Z,3.73
2023-01-31T21:54:31.318Z,3.72
2023-01-31T21:59:32.044Z,3.75
2023-01-31T22:04:32.809Z,3.76
2023-01-31T22:09:33.545Z,3.76
2023-01-31T22:14:34.399Z,3.80
2023-01-31T22:19:35.120Z,3.87
2023-01-31T22:24:35.869Z,3.78
2023-01-31T22:29:36.718Z,3.72
2023-01-31T22:34:37.516Z,3.72
2023-01-31T22:39:38.237Z,3.71
2023-01-31T22:44:39.294Z,3.71
2023-01-31T22:49:40.010Z,3.78
2023-01-31T22:54:40.800Z,3.71
2023-01-31T22:59:41.580Z,3.68
2023-01-31T23:04:42.345Z,3.68
2023-01-31T23:09:43.079Z,3.65
2023-01-31T23:14:43.904Z,3.58
2023-01-31T23:19:44.656Z,3.58
2023-01-31T23:24:45.402Z,3.52
2023-01-31T23:29:46.138Z,3.48
2023-01-31T23:34:47.502Z,3.47
2023-01-31T23:39:48.571Z,3.45
2023-01-31T23:44:49.766Z,3.49
2023-01-31T23:49:50.504Z,3.43
2023-01-31T23:54:51.304Z,3.43
2023-01-31T23:59:52.065Z,3.44
